Relevés horaires St-Hubert (Belgique)


Relevés horaires à St-Hubert - Lundi 19 Mai 2014
Heure UTC1 Température [°C] Vent [km/h] Hum. [%] Pres.4 [hPa] Visi. [Km] Nébu. [octa] Préc.5 [mm] Cond.
2m. Res. Ros. Dir.2 Vit. Moy. Raf.3
23:00 14.7 14.7 6.6 S 3.7 5.6 11.1 58 1008.9(0.6/3h) 45 0/8 -- --
22:00 15.1 15.1 6.2 SSE 3.7 5.6 11.1 55 1008.7(0.9/3h) 45 0/8 -- --
21:00 15.1 15.1 6.8 SSE 3.7 5.6 13.0 58 1008.4(1.0/3h) 45 0/8 -- --
20:00 15.7 15.7 6.9 SSE 3.7 3.7 9.3 56 1008.1(0.9/3h) 45 0/8 -- --
19:00 18.1 18.1 7.9 NNO 3.7 5.6 13.0 51 1007.1(0.6/3h) 40 0/8 -- --
18:00 20.0 20.0 7.8 SSE 3.7 9.3 16.7 45 1006.2(0.2/3h) 35 0/8 0/12h
--
17:00 20.1 20.1 7.9 NNO 5.6 7.4 16.7 45 1006.1(0.2/3h) 35 0/8 -- --
16:00 20.8 20.8 7.8 NNO 5.6 9.3 14.8 43 1005.9(0.0/3h) 30 0/8 -- --
15:00 21.3 21.3 7.3 S 5.6 7.4 14.8 40 1005.8(-0.2/3h) 35 6/8 -- --
14:00 20.7 20.7 7.1 SO 5.6 7.4 14.8 41 1005.8(-0.5/3h) 35 0/8 -- --
13:00 20.2 20.2 8.6 SSE 5.6 7.4 14.8 47 1006(-0.6/3h) 30 3/8 -- --
12:00 19.8 19.8 6.3 S 5.6 7.4 14.8 41 1006.4(-0.2/3h) 26 0/8 0/6h
--
11:00 18.8 18.8 9.3 SE 7.4 7.4 13.0 54 1006.7(0.1/3h) 30 1/8 -- --
10:00 18.2 18.2 8.8 S 3.7 5.6 9.3 54 1007(0.2/3h) 30 1/8 -- --
09:00 17.4 17.4 8.5 NNO 3.7 7.4 11.1 56 1007.1(0.1/3h) 30 0/8 -- --
08:00 16.0 16.0 8.9 SE 5.6 7.4 11.1 63 1007.4(0.1/3h) 35 0/8 -- --
07:00 14.4 14.4 7.7 SE 5.6 7.4 11.1 64 1007.7(-0.2/3h) 30 0/8 -- --
06:00 13.4 13.4 7.3 SE 5.6 7.4 11.1 67 1007.9(-0.5/3h) 35 0/8 0/12h
--
05:00 12.7 12.3 6.8 SE 7.4 7.4 9.3 67 1008.1(-0.6/3h) 30 0/8 -- --
04:00 11.4 11.2 6.8 SE 5.6 7.4 11.1 73 1008.6(-0.8/3h) 40 0/8 -- --
03:00 11.3 10.7 7.1 ESE 7.4 7.4 11.1 75 1008.9(-0.9/3h) 40 0/8 -- --
02:00 11.4 10.8 6.7 ESE 7.4 7.4 9.3 73 1009(-1.0/3h) 40 0/8 -- --
01:00 10.5 10.2 6.0 SE 5.6 5.6 5.6 74 1009.7(-1.0/3h) 45 0/8 -- --
00:00 9.9 9.9 5.8 SE 3.7 3.7 9.3 76 1010.2(-0.9/3h) 45 0/8 0/6h
0/24h
--

1 Coordinated Universal Time. Actuellement il est 05:00 locale et 04:00 UTC.

2 Le vent souffle depuis la direction indiquée vers la direction oposée.

3 Les rafales max. sont disponible 40 min après l'heure du relevé.

4 Pour les stations d'altitude (plus de 600m) le géopotentiel du niveau le plus proche de la pression obligatoire est indiqué.

5 Les stations disposant d'un diffuseur peuvent indiquer "trace". Cela signifie que des précipitations ont touchés le sol mais que la quantité est inférieure à 0.1 mm.

Récapitulatif de la journée
Température [°C] Vent [km/h] Ensoleillement4 [h] Precipitations totale5 [mm] Pression [Hpa]
Min1 Max.2 Moy.3 Max. Min Max.
9.9 21.5 6.8 16.7 0 h 0 min 0 1005.8 1010.2

1 Température minimale relevée entre 18:00 UTC la veille et 18:00 UTC le jour donné.

2 Température maximale relevée entre 06:00 UTC le jour donné et 06:00 UTC le lendemain.

3 Vent moyen de la journée basé sur les relevés horaires.

4 Ensoleillement en heures relevé entre 06:00 UTC la veille et 06:00 UTC le jour donné.

5 Précipitations totales tombées entre 06:00 UTC la jour donné et 06:00 UTC le lendemain.

Graphiques horaires